sensor_id;sensor_type;location;lat;lon;timestamp;temperature;humidity
30290;DHT22;17105;55.652;37.710;2022-08-11T08:00:52;28.60;47.50
30290;DHT22;17105;55.652;37.710;2022-08-11T08:01:55;28.80;47.70
30290;DHT22;17105;55.652;37.710;2022-08-11T08:05:32;28.70;47.60
30290;DHT22;17105;55.652;37.710;2022-08-11T08:06:25;28.50;47.70
30290;DHT22;17105;55.652;37.710;2022-08-11T08:08:14;28.40;47.40
30290;DHT22;17105;55.652;37.710;2022-08-11T08:09:08;28.20;46.50
30290;DHT22;17105;55.652;37.710;2022-08-11T08:10:01;28.10;46.40
30290;DHT22;17105;55.652;37.710;2022-08-11T08:10:54;28.00;46.40
30290;DHT22;17105;55.652;37.710;2022-08-11T08:11:47;28.00;46.40
30290;DHT22;17105;55.652;37.710;2022-08-11T08:12:39;27.90;46.30
30290;DHT22;17105;55.652;37.710;2022-08-11T08:13:33;28.00;46.50
30290;DHT22;17105;55.652;37.710;2022-08-11T08:14:26;27.90;46.40
30290;DHT22;17105;55.652;37.710;2022-08-11T08:15:19;27.90;46.80
30290;DHT22;17105;55.652;37.710;2022-08-11T08:16:13;27.90;46.70
30290;DHT22;17105;55.652;37.710;2022-08-11T08:17:06;27.90;46.70
30290;DHT22;17105;55.652;37.710;2022-08-11T08:18:02;27.90;46.60
30290;DHT22;17105;55.652;37.710;2022-08-11T08:18:58;27.90;46.70
30290;DHT22;17105;55.652;37.710;2022-08-11T08:19:32;27.90;46.90
30290;DHT22;17105;55.652;37.710;2022-08-11T08:20:10;28.00;47.10
30290;DHT22;17105;55.652;37.710;2022-08-11T08:20:48;28.00;46.80
30290;DHT22;17105;55.652;37.710;2022-08-11T08:21:22;28.00;46.70
30290;DHT22;17105;55.652;37.710;2022-08-11T08:21:57;28.00;46.60
30290;DHT22;17105;55.652;37.710;2022-08-11T08:22:54;28.10;46.40
30290;DHT22;17105;55.652;37.710;2022-08-11T08:23:30;28.20;46.50
30290;DHT22;17105;55.652;37.710;2022-08-11T08:24:06;28.30;46.60
30290;DHT22;17105;55.652;37.710;2022-08-11T08:24:41;28.40;46.50
30290;DHT22;17105;55.652;37.710;2022-08-11T08:25:17;28.50;45.90
30290;DHT22;17105;55.652;37.710;2022-08-11T08:25:53;28.60;46.60
30290;DHT22;17105;55.652;37.710;2022-08-11T08:28:39;28.70;46.60
30290;DHT22;17105;55.652;37.710;2022-08-11T08:30:07;29.00;45.50
30290;DHT22;17105;55.652;37.710;2022-08-11T08:31:02;29.10;45.60
30290;DHT22;17105;55.652;37.710;2022-08-11T08:31:39;29.10;45.20
30290;DHT22;17105;55.652;37.710;2022-08-11T08:32:14;29.10;45.00
30290;DHT22;17105;55.652;37.710;2022-08-11T08:48:16;29.10;44.60
30290;DHT22;17105;55.652;37.710;2022-08-11T08:48:54;28.50;44.90
30290;DHT22;17105;55.652;37.710;2022-08-11T08:49:34;28.40;45.20
30290;DHT22;17105;55.652;37.710;2022-08-11T08:50:14;28.40;44.80
30290;DHT22;17105;55.652;37.710;2022-08-11T08:50:56;28.40;44.60
30290;DHT22;17105;55.652;37.710;2022-08-11T08:51:54;28.30;44.20
30290;DHT22;17105;55.652;37.710;2022-08-11T08:52:55;28.30;44.40
30290;DHT22;17105;55.652;37.710;2022-08-11T08:53:35;28.20;44.70
30290;DHT22;17105;55.652;37.710;2022-08-11T08:54:36;28.20;44.60
30290;DHT22;17105;55.652;37.710;2022-08-11T08:55:16;28.20;44.70
30290;DHT22;17105;55.652;37.710;2022-08-11T08:55:52;28.20;44.80
30290;DHT22;17105;55.652;37.710;2022-08-11T08:56:30;28.20;44.90
30290;DHT22;17105;55.652;37.710;2022-08-11T08:57:08;28.20;44.90
30290;DHT22;17105;55.652;37.710;2022-08-11T09:00:59;28.10;44.90
30290;DHT22;17105;55.652;37.710;2022-08-11T09:01:40;28.10;45.30
30290;DHT22;17105;55.652;37.710;2022-08-11T09:02:19;28.10;45.40
30290;DHT22;17105;55.652;37.710;2022-08-11T09:03:06;28.00;45.30
30290;DHT22;17105;55.652;37.710;2022-08-11T09:04:06;28.00;45.40
30290;DHT22;17105;55.652;37.710;2022-08-11T09:04:46;27.90;45.10
30290;DHT22;17105;55.652;37.710;2022-08-11T09:05:22;27.90;45.00
30290;DHT22;17105;55.652;37.710;2022-08-11T09:05:58;27.90;45.00
30290;DHT22;17105;55.652;37.710;2022-08-11T09:06:32;27.90;45.10
30290;DHT22;17105;55.652;37.710;2022-08-11T09:07:10;27.90;45.00
30290;DHT22;17105;55.652;37.710;2022-08-11T09:27:36;27.90;44.30
30290;DHT22;17105;55.652;37.710;2022-08-11T09:31:57;27.80;44.60
30290;DHT22;17105;55.652;37.710;2022-08-11T09:32:34;27.60;43.90
30290;DHT22;17105;55.652;37.710;2022-08-11T09:33:10;27.60;44.00
30290;DHT22;17105;55.652;37.710;2022-08-11T09:33:45;27.60;44.00
30290;DHT22;17105;55.652;37.710;2022-08-11T09:34:21;27.60;44.10
30290;DHT22;17105;55.652;37.710;2022-08-11T09:34:57;27.60;44.20
30290;DHT22;17105;55.652;37.710;2022-08-11T09:35:33;27.60;44.40
30290;DHT22;17105;55.652;37.710;2022-08-11T09:36:10;27.60;44.40
30290;DHT22;17105;55.652;37.710;2022-08-11T09:37:04;27.70;44.50
30290;DHT22;17105;55.652;37.710;2022-08-11T09:38:19;27.70;44.80
30290;DHT22;17105;55.652;37.710;2022-08-11T09:39:20;27.70;44.20
30290;DHT22;17105;55.652;37.710;2022-08-11T09:40:13;27.80;44.30
30290;DHT22;17105;55.652;37.710;2022-08-11T09:41:08;27.80;44.30
30290;DHT22;17105;55.652;37.710;2022-08-11T09:41:43;27.80;44.30
30290;DHT22;17105;55.652;37.710;2022-08-11T09:42:35;27.80;44.30
30290;DHT22;17105;55.652;37.710;2022-08-11T09:43:28;27.90;44.60
30290;DHT22;17105;55.652;37.710;2022-08-11T09:44:22;27.90;44.70
30290;DHT22;17105;55.652;37.710;2022-08-11T09:45:15;28.00;44.00
30290;DHT22;17105;55.652;37.710;2022-08-11T09:45:52;28.00;43.90
30290;DHT22;17105;55.652;37.710;2022-08-11T09:46:28;28.00;43.70
30290;DHT22;17105;55.652;37.710;2022-08-11T09:47:03;28.00;43.70
30290;DHT22;17105;55.652;37.710;2022-08-11T09:47:43;28.00;43.80
30290;DHT22;17105;55.652;37.710;2022-08-11T09:48:19;28.00;43.80
30290;DHT22;17105;55.652;37.710;2022-08-11T09:48:59;28.00;43.80
30290;DHT22;17105;55.652;37.710;2022-08-11T09:49:36;28.00;43.60
30290;DHT22;17105;55.652;37.710;2022-08-11T09:50:14;28.00;43.50
30290;DHT22;17105;55.652;37.710;2022-08-11T09:50:55;28.00;43.20
30290;DHT22;17105;55.652;37.710;2022-08-11T09:51:31;28.00;43.30
30290;DHT22;17105;55.652;37.710;2022-08-11T09:52:06;28.00;43.30
30290;DHT22;17105;55.652;37.710;2022-08-11T09:52:41;27.90;43.20
30290;DHT22;17105;55.652;37.710;2022-08-11T09:53:41;28.00;43.20
30290;DHT22;17105;55.652;37.710;2022-08-11T09:54:36;27.90;43.20
30290;DHT22;17105;55.652;37.710;2022-08-11T09:55:16;28.00;43.00
30290;DHT22;17105;55.652;37.710;2022-08-11T09:55:51;27.90;43.10
30290;DHT22;17105;55.652;37.710;2022-08-11T09:56:28;27.90;43.00
30290;DHT22;17105;55.652;37.710;2022-08-11T09:57:22;27.90;43.10
30290;DHT22;17105;55.652;37.710;2022-08-11T09:58:17;27.90;42.90
30290;DHT22;17105;55.652;37.710;2022-08-11T09:59:12;27.90;42.30
30290;DHT22;17105;55.652;37.710;2022-08-11T09:59:46;27.90;42.20
30290;DHT22;17105;55.652;37.710;2022-08-11T10:00:29;27.90;42.10
30290;DHT22;17105;55.652;37.710;2022-08-11T10:01:05;27.90;42.00
30290;DHT22;17105;55.652;37.710;2022-08-11T10:02:01;27.90;42.10
30290;DHT22;17105;55.652;37.710;2022-08-11T10:02:42;27.90;42.30
30290;DHT22;17105;55.652;37.710;2022-08-11T10:03:22;28.00;42.00
30290;DHT22;17105;55.652;37.710;2022-08-11T10:03:59;28.00;42.20
30290;DHT22;17105;55.652;37.710;2022-08-11T10:04:40;28.00;42.40
30290;DHT22;17105;55.652;37.710;2022-08-11T10:05:17;28.00;42.50
30290;DHT22;17105;55.652;37.710;2022-08-11T10:06:11;28.00;42.70
30290;DHT22;17105;55.652;37.710;2022-08-11T10:07:06;28.00;43.00
30290;DHT22;17105;55.652;37.710;2022-08-11T10:07:45;28.00;43.00
30290;DHT22;17105;55.652;37.710;2022-08-11T10:08:27;28.00;43.20
30290;DHT22;17105;55.652;37.710;2022-08-11T10:09:05;28.00;43.40
30290;DHT22;17105;55.652;37.710;2022-08-11T10:09:44;28.00;43.10
30290;DHT22;17105;55.652;37.710;2022-08-11T10:10:22;28.00;42.70
30290;DHT22;17105;55.652;37.710;2022-08-11T10:10:57;28.10;42.50
30290;DHT22;17105;55.652;37.710;2022-08-11T10:11:34;28.10;42.10
30290;DHT22;17105;55.652;37.710;2022-08-11T10:12:13;28.10;41.90
30290;DHT22;17105;55.652;37.710;2022-08-11T10:12:55;28.10;41.80
30290;DHT22;17105;55.652;37.710;2022-08-11T10:13:33;28.10;41.80
30290;DHT22;17105;55.652;37.710;2022-08-11T10:14:52;28.10;41.90
30290;DHT22;17105;55.652;37.710;2022-08-11T10:15:45;28.20;42.40
30290;DHT22;17105;55.652;37.710;2022-08-11T10:16:40;28.20;43.20
30290;DHT22;17105;55.652;37.710;2022-08-11T10:17:15;28.30;43.50
30290;DHT22;17105;55.652;37.710;2022-08-11T10:17:57;28.30;43.10
30290;DHT22;17105;55.652;37.710;2022-08-11T10:18:50;28.30;42.60
30290;DHT22;17105;55.652;37.710;2022-08-11T10:19:26;28.40;42.50
30290;DHT22;17105;55.652;37.710;2022-08-11T10:20:02;28.40;42.80
30290;DHT22;17105;55.652;37.710;2022-08-11T10:20:42;28.40;42.80
30290;DHT22;17105;55.652;37.710;2022-08-11T10:21:23;28.50;43.00
30290;DHT22;17105;55.652;37.710;2022-08-11T10:22:01;28.50;42.50
30290;DHT22;17105;55.652;37.710;2022-08-11T10:23:00;28.50;42.70
30290;DHT22;17105;55.652;37.710;2022-08-11T10:23:55;28.60;42.30
30290;DHT22;17105;55.652;37.710;2022-08-11T10:24:51;28.60;41.80
30290;DHT22;17105;55.652;37.710;2022-08-11T10:25:43;28.60;41.60
30290;DHT22;17105;55.652;37.710;2022-08-11T10:26:37;28.60;41.40
30290;DHT22;17105;55.652;37.710;2022-08-11T10:27:34;28.60;41.90
30290;DHT22;17105;55.652;37.710;2022-08-11T10:28:28;28.70;42.40
30290;DHT22;17105;55.652;37.710;2022-08-11T10:29:24;28.60;42.30
30290;DHT22;17105;55.652;37.710;2022-08-11T10:30:24;28.60;41.80
30290;DHT22;17105;55.652;37.710;2022-08-11T10:31:19;28.60;42.50
30290;DHT22;17105;55.652;37.710;2022-08-11T10:32:31;28.60;42.00
30290;DHT22;17105;55.652;37.710;2022-08-11T10:33:34;28.60;41.60
30290;DHT22;17105;55.652;37.710;2022-08-11T10:34:31;28.60;41.10
30290;DHT22;17105;55.652;37.710;2022-08-11T10:35:10;28.60;41.20
30290;DHT22;17105;55.652;37.710;2022-08-11T10:35:47;28.70;41.20
30290;DHT22;17105;55.652;37.710;2022-08-11T10:36:23;28.70;41.00
30290;DHT22;17105;55.652;37.710;2022-08-11T10:36:58;28.70;40.90
30290;DHT22;17105;55.652;37.710;2022-08-11T10:37:36;28.70;41.00
30290;DHT22;17105;55.652;37.710;2022-08-11T10:38:30;28.70;41.10
30290;DHT22;17105;55.652;37.710;2022-08-11T10:39:08;28.70;41.30
30290;DHT22;17105;55.652;37.710;2022-08-11T10:39:45;28.70;41.20
30290;DHT22;17105;55.652;37.710;2022-08-11T10:40:22;28.70;41.00
30290;DHT22;17105;55.652;37.710;2022-08-11T10:40:57;28.80;40.70
30290;DHT22;17105;55.652;37.710;2022-08-11T10:41:49;28.80;40.60
30290;DHT22;17105;55.652;37.710;2022-08-11T10:43:12;28.80;40.70
30290;DHT22;17105;55.652;37.710;2022-08-11T10:44:09;28.70;40.80
30290;DHT22;17105;55.652;37.710;2022-08-11T10:44:46;28.70;40.90
30290;DHT22;17105;55.652;37.710;2022-08-11T10:45:23;28.60;40.90
30290;DHT22;17105;55.652;37.710;2022-08-11T10:46:15;28.60;41.00
30290;DHT22;17105;55.652;37.710;2022-08-11T10:47:09;28.50;41.30
30290;DHT22;17105;55.652;37.710;2022-08-11T10:48:04;28.50;41.60
30290;DHT22;17105;55.652;37.710;2022-08-11T10:48:49;28.50;41.90
30290;DHT22;17105;55.652;37.710;2022-08-11T10:49:24;28.50;42.30
30290;DHT22;17105;55.652;37.710;2022-08-11T10:50:02;28.50;42.40
30290;DHT22;17105;55.652;37.710;2022-08-11T10:50:56;28.50;42.40
30290;DHT22;17105;55.652;37.710;2022-08-11T10:51:46;28.40;42.50
30290;DHT22;17105;55.652;37.710;2022-08-11T10:52:39;28.40;42.30
30290;DHT22;17105;55.652;37.710;2022-08-11T10:53:32;28.30;42.20
30290;DHT22;17105;55.652;37.710;2022-08-11T10:54:25;28.30;42.40
30290;DHT22;17105;55.652;37.710;2022-08-11T10:55:17;28.30;42.70
30290;DHT22;17105;55.652;37.710;2022-08-11T10:56:10;28.30;42.80
30290;DHT22;17105;55.652;37.710;2022-08-11T10:57:06;28.30;43.30
30290;DHT22;17105;55.652;37.710;2022-08-11T10:58:00;28.30;43.30
30290;DHT22;17105;55.652;37.710;2022-08-11T10:58:53;28.40;43.80
30290;DHT22;17105;55.652;37.710;2022-08-11T10:59:35;28.40;43.80
30290;DHT22;17105;55.652;37.710;2022-08-11T11:00:11;28.40;43.20
30290;DHT22;17105;55.652;37.710;2022-08-11T11:00:52;28.50;43.00
30290;DHT22;17105;55.652;37.710;2022-08-11T11:01:31;28.50;42.60
30290;DHT22;17105;55.652;37.710;2022-08-11T11:02:11;28.60;42.40
30290;DHT22;17105;55.652;37.710;2022-08-11T11:02:46;28.50;42.40
30290;DHT22;17105;55.652;37.710;2022-08-11T11:03:42;28.50;42.50
30290;DHT22;17105;55.652;37.710;2022-08-11T11:04:23;28.60;42.80
30290;DHT22;17105;55.652;37.710;2022-08-11T11:05:11;28.60;42.60
30290;DHT22;17105;55.652;37.710;2022-08-11T11:05:49;28.70;42.70
30290;DHT22;17105;55.652;37.710;2022-08-11T11:06:49;28.70;42.90
30290;DHT22;17105;55.652;37.710;2022-08-11T11:07:35;28.80;43.20
30290;DHT22;17105;55.652;37.710;2022-08-11T11:08:19;28.80;43.70
30290;DHT22;17105;55.652;37.710;2022-08-11T11:26:51;28.90;43.40
30290;DHT22;17105;55.652;37.710;2022-08-11T11:47:19;28.70;41.60
30290;DHT22;17105;55.652;37.710;2022-08-11T11:47:57;27.80;40.80
30290;DHT22;17105;55.652;37.710;2022-08-11T11:48:35;27.80;40.70
30290;DHT22;17105;55.652;37.710;2022-08-11T11:49:10;27.80;40.70
30290;DHT22;17105;55.652;37.710;2022-08-11T11:49:49;27.80;40.70
30290;DHT22;17105;55.652;37.710;2022-08-11T11:50:30;27.70;40.50
30290;DHT22;17105;55.652;37.710;2022-08-11T11:51:05;27.80;40.20
30290;DHT22;17105;55.652;37.710;2022-08-11T11:51:40;27.70;40.30
30290;DHT22;17105;55.652;37.710;2022-08-11T11:52:21;27.70;40.40
30290;DHT22;17105;55.652;37.710;2022-08-11T11:52:59;27.70;40.50
30290;DHT22;17105;55.652;37.710;2022-08-11T11:53:34;27.70;40.50
30290;DHT22;17105;55.652;37.710;2022-08-11T11:54:10;27.70;40.60
30290;DHT22;17105;55.652;37.710;2022-08-11T11:54:46;27.70;40.80
30290;DHT22;17105;55.652;37.710;2022-08-11T11:55:23;27.70;40.70
30290;DHT22;17105;55.652;37.710;2022-08-11T11:56:01;27.60;40.80
30290;DHT22;17105;55.652;37.710;2022-08-11T11:56:36;27.60;40.80
30290;DHT22;17105;55.652;37.710;2022-08-11T11:57:13;27.60;40.60
30290;DHT22;17105;55.652;37.710;2022-08-11T11:58:08;27.60;40.40
30290;DHT22;17105;55.652;37.710;2022-08-11T11:59:03;27.60;40.30
30290;DHT22;17105;55.652;37.710;2022-08-11T11:59:56;27.60;40.20
30290;DHT22;17105;55.652;37.710;2022-08-11T12:00:56;27.60;40.30
30290;DHT22;17105;55.652;37.710;2022-08-11T12:01:50;27.60;40.20
30290;DHT22;17105;55.652;37.710;2022-08-11T12:02:26;27.60;40.30
30290;DHT22;17105;55.652;37.710;2022-08-11T12:03:02;27.50;40.20
30290;DHT22;17105;55.652;37.710;2022-08-11T12:03:39;27.50;40.20
30290;DHT22;17105;55.652;37.710;2022-08-11T12:04:16;27.50;40.30
30290;DHT22;17105;55.652;37.710;2022-08-11T12:04:54;27.50;40.20
30290;DHT22;17105;55.652;37.710;2022-08-11T12:05:32;27.50;40.20
30290;DHT22;17105;55.652;37.710;2022-08-11T12:06:11;27.50;40.30
30290;DHT22;17105;55.652;37.710;2022-08-11T12:06:46;27.50;40.40
30290;DHT22;17105;55.652;37.710;2022-08-11T12:07:22;27.50;40.20
30290;DHT22;17105;55.652;37.710;2022-08-11T12:08:48;27.50;40.30
30290;DHT22;17105;55.652;37.710;2022-08-11T12:09:23;27.50;40.90
30290;DHT22;17105;55.652;37.710;2022-08-11T12:09:59;27.50;41.00
30290;DHT22;17105;55.652;37.710;2022-08-11T12:10:34;27.40;41.00
30290;DHT22;17105;55.652;37.710;2022-08-11T12:11:10;27.40;41.10
30290;DHT22;17105;55.652;37.710;2022-08-11T12:12:04;27.40;40.80
30290;DHT22;17105;55.652;37.710;2022-08-11T12:13:02;27.40;40.90
30290;DHT22;17105;55.652;37.710;2022-08-11T12:13:57;27.40;41.10
30290;DHT22;17105;55.652;37.710;2022-08-11T12:14:36;27.40;41.40
30290;DHT22;17105;55.652;37.710;2022-08-11T12:15:10;27.40;42.00
30290;DHT22;17105;55.652;37.710;2022-08-11T12:15:45;27.40;41.70
30290;DHT22;17105;55.652;37.710;2022-08-11T12:16:44;27.40;41.70
30290;DHT22;17105;55.652;37.710;2022-08-11T12:17:21;27.40;41.80
30290;DHT22;17105;55.652;37.710;2022-08-11T12:17:57;27.40;42.20
30290;DHT22;17105;55.652;37.710;2022-08-11T12:18:33;27.40;42.20
30290;DHT22;17105;55.652;37.710;2022-08-11T12:19:12;27.40;42.10
30290;DHT22;17105;55.652;37.710;2022-08-11T12:19:48;27.50;42.20
30290;DHT22;17105;55.652;37.710;2022-08-11T12:20:26;27.50;42.40
30290;DHT22;17105;55.652;37.710;2022-08-11T12:21:08;27.50;42.60
30290;DHT22;17105;55.652;37.710;2022-08-11T12:21:42;27.50;42.40
30290;DHT22;17105;55.652;37.710;2022-08-11T12:22:32;27.50;42.40
30290;DHT22;17105;55.652;37.710;2022-08-11T12:23:26;27.50;42.40
30290;DHT22;17105;55.652;37.710;2022-08-11T12:24:17;27.50;42.50
30290;DHT22;17105;55.652;37.710;2022-08-11T12:25:10;27.60;42.30
30290;DHT22;17105;55.652;37.710;2022-08-11T12:26:04;27.60;43.20
30290;DHT22;17105;55.652;37.710;2022-08-11T12:26:59;27.60;42.20
30290;DHT22;17105;55.652;37.710;2022-08-11T12:27:57;27.60;42.20
30290;DHT22;17105;55.652;37.710;2022-08-11T12:28:33;27.60;42.60
30290;DHT22;17105;55.652;37.710;2022-08-11T12:29:10;27.60;42.60
30290;DHT22;17105;55.652;37.710;2022-08-11T12:29:48;27.60;42.60
30290;DHT22;17105;55.652;37.710;2022-08-11T12:30:28;27.60;42.70
30290;DHT22;17105;55.652;37.710;2022-08-11T12:31:03;27.60;43.20
30290;DHT22;17105;55.652;37.710;2022-08-11T12:31:39;27.60;43.00
30290;DHT22;17105;55.652;37.710;2022-08-11T12:32:15;27.60;43.10
30290;DHT22;17105;55.652;37.710;2022-08-11T12:32:51;27.60;43.10
30290;DHT22;17105;55.652;37.710;2022-08-11T12:33:27;27.60;43.30
30290;DHT22;17105;55.652;37.710;2022-08-11T12:34:02;27.60;43.30
30290;DHT22;17105;55.652;37.710;2022-08-11T12:34:36;27.60;43.10
30290;DHT22;17105;55.652;37.710;2022-08-11T12:35:13;27.60;43.20
30290;DHT22;17105;55.652;37.710;2022-08-11T12:35:58;27.60;43.30
30290;DHT22;17105;55.652;37.710;2022-08-11T12:36:36;27.70;43.30
30290;DHT22;17105;55.652;37.710;2022-08-11T12:37:12;27.70;43.10
30290;DHT22;17105;55.652;37.710;2022-08-11T12:37:51;27.70;42.90
30290;DHT22;17105;55.652;37.710;2022-08-11T12:38:37;27.70;42.90
30290;DHT22;17105;55.652;37.710;2022-08-11T12:39:15;27.70;42.90
30290;DHT22;17105;55.652;37.710;2022-08-11T12:40:03;27.70;43.10
30290;DHT22;17105;55.652;37.710;2022-08-11T12:41:16;27.70;43.00
30290;DHT22;17105;55.652;37.710;2022-08-11T12:42:12;27.70;43.20
30290;DHT22;17105;55.652;37.710;2022-08-11T12:43:09;27.70;43.10
30290;DHT22;17105;55.652;37.710;2022-08-11T12:44:12;27.70;43.20
30290;DHT22;17105;55.652;37.710;2022-08-11T12:45:09;27.60;43.10
30290;DHT22;17105;55.652;37.710;2022-08-11T12:46:07;27.60;42.60
30290;DHT22;17105;55.652;37.710;2022-08-11T12:46:44;27.60;42.40
30290;DHT22;17105;55.652;37.710;2022-08-11T12:47:20;27.70;42.30
30290;DHT22;17105;55.652;37.710;2022-08-11T12:48:14;27.60;42.20
30290;DHT22;17105;55.652;37.710;2022-08-11T12:49:30;27.60;42.20
30290;DHT22;17105;55.652;37.710;2022-08-11T12:50:24;27.60;42.50
30290;DHT22;17105;55.652;37.710;2022-08-11T12:51:21;27.60;42.60
30290;DHT22;17105;55.652;37.710;2022-08-11T12:52:41;27.60;43.50
30290;DHT22;17105;55.652;37.710;2022-08-11T12:53:22;27.60;43.80
30290;DHT22;17105;55.652;37.710;2022-08-11T12:53:59;27.60;43.40
30290;DHT22;17105;55.652;37.710;2022-08-11T12:54:47;27.50;43.10
30290;DHT22;17105;55.652;37.710;2022-08-11T12:55:24;27.50;43.00
30290;DHT22;17105;55.652;37.710;2022-08-11T12:56:38;27.50;43.00
30290;DHT22;17105;55.652;37.710;2022-08-11T12:57:35;27.50;43.10
30290;DHT22;17105;55.652;37.710;2022-08-11T12:58:28;27.50;43.40
30290;DHT22;17105;55.652;37.710;2022-08-11T12:59:02;27.50;43.20
30290;DHT22;17105;55.652;37.710;2022-08-11T12:59:56;27.50;43.20
30290;DHT22;17105;55.652;37.710;2022-08-11T13:00:50;27.50;43.40
30290;DHT22;17105;55.652;37.710;2022-08-11T13:01:44;27.50;43.20
30290;DHT22;17105;55.652;37.710;2022-08-11T13:02:36;27.50;43.10
30290;DHT22;17105;55.652;37.710;2022-08-11T13:03:33;27.50;42.80
30290;DHT22;17105;55.652;37.710;2022-08-11T13:04:29;27.50;42.60
30290;DHT22;17105;55.652;37.710;2022-08-11T13:05:23;27.50;42.70
30290;DHT22;17105;55.652;37.710;2022-08-11T13:06:02;27.50;42.90
30290;DHT22;17105;55.652;37.710;2022-08-11T13:06:37;27.50;43.30
30290;DHT22;17105;55.652;37.710;2022-08-11T13:07:14;27.50;43.20
30290;DHT22;17105;55.652;37.710;2022-08-11T13:07:50;27.50;42.90
30290;DHT22;17105;55.652;37.710;2022-08-11T13:08:27;27.40;42.70
30290;DHT22;17105;55.652;37.710;2022-08-11T13:09:03;27.40;42.80
30290;DHT22;17105;55.652;37.710;2022-08-11T13:09:38;27.40;43.10
30290;DHT22;17105;55.652;37.710;2022-08-11T13:10:16;27.40;42.70
30290;DHT22;17105;55.652;37.710;2022-08-11T13:11:14;27.40;42.50
30290;DHT22;17105;55.652;37.710;2022-08-11T13:12:28;27.40;42.10
30290;DHT22;17105;55.652;37.710;2022-08-11T13:13:22;27.40;42.00
30290;DHT22;17105;55.652;37.710;2022-08-11T13:14:18;27.50;41.90
30290;DHT22;17105;55.652;37.710;2022-08-11T13:14:52;27.50;41.70
30290;DHT22;17105;55.652;37.710;2022-08-11T13:15:29;27.50;41.80
30290;DHT22;17105;55.652;37.710;2022-08-11T13:16:05;27.50;42.10
30290;DHT22;17105;55.652;37.710;2022-08-11T13:16:41;27.50;42.10
30290;DHT22;17105;55.652;37.710;2022-08-11T13:17:35;27.50;42.30
30290;DHT22;17105;55.652;37.710;2022-08-11T13:18:18;27.60;42.00
30290;DHT22;17105;55.652;37.710;2022-08-11T13:18:57;27.60;42.20
30290;DHT22;17105;55.652;37.710;2022-08-11T13:19:34;27.60;42.20
30290;DHT22;17105;55.652;37.710;2022-08-11T13:20:09;27.60;41.90
30290;DHT22;17105;55.652;37.710;2022-08-11T13:20:46;27.60;41.70
30290;DHT22;17105;55.652;37.710;2022-08-11T13:21:21;27.70;41.50
30290;DHT22;17105;55.652;37.710;2022-08-11T13:21:56;27.70;41.30
30290;DHT22;17105;55.652;37.710;2022-08-11T13:22:34;27.70;41.30
30290;DHT22;17105;55.652;37.710;2022-08-11T13:23:11;27.70;41.20
30290;DHT22;17105;55.652;37.710;2022-08-11T13:23:48;27.70;41.00
30290;DHT22;17105;55.652;37.710;2022-08-11T13:24:35;27.70;41.10
30290;DHT22;17105;55.652;37.710;2022-08-11T13:25:11;27.70;41.10
30290;DHT22;17105;55.652;37.710;2022-08-11T13:25:49;27.70;40.80
30290;DHT22;17105;55.652;37.710;2022-08-11T13:26:25;27.70;40.60
30290;DHT22;17105;55.652;37.710;2022-08-11T13:27:19;27.70;40.50
30290;DHT22;17105;55.652;37.710;2022-08-11T13:27:56;27.70;40.70
30290;DHT22;17105;55.652;37.710;2022-08-11T13:28:34;27.70;40.70
30290;DHT22;17105;55.652;37.710;2022-08-11T13:29:15;27.70;40.70
30290;DHT22;17105;55.652;37.710;2022-08-11T13:29:50;27.70;40.80
30290;DHT22;17105;55.652;37.710;2022-08-11T13:30:46;27.60;40.80
30290;DHT22;17105;55.652;37.710;2022-08-11T13:31:40;27.70;40.80
30290;DHT22;17105;55.652;37.710;2022-08-11T13:32:17;27.70;40.80
30290;DHT22;17105;55.652;37.710;2022-08-11T13:32:54;27.70;40.80
30290;DHT22;17105;55.652;37.710;2022-08-11T13:33:28;27.60;40.70
30290;DHT22;17105;55.652;37.710;2022-08-11T13:34:04;27.60;40.70
30290;DHT22;17105;55.652;37.710;2022-08-11T13:34:42;27.60;40.80
30290;DHT22;17105;55.652;37.710;2022-08-11T13:35:18;27.60;41.00
30290;DHT22;17105;55.652;37.710;2022-08-11T13:35:54;27.60;40.90
30290;DHT22;17105;55.652;37.710;2022-08-11T13:36:29;27.60;40.80
30290;DHT22;17105;55.652;37.710;2022-08-11T13:37:05;27.50;40.80
30290;DHT22;17105;55.652;37.710;2022-08-11T13:37:44;27.50;40.70
30290;DHT22;17105;55.652;37.710;2022-08-11T13:38:43;27.60;40.70
30290;DHT22;17105;55.652;37.710;2022-08-11T13:39:24;27.60;41.30
30290;DHT22;17105;55.652;37.710;2022-08-11T13:40:00;27.50;40.70
30290;DHT22;17105;55.652;37.710;2022-08-11T13:40:35;27.50;40.80
30290;DHT22;17105;55.652;37.710;2022-08-11T13:41:28;27.50;40.70
30290;DHT22;17105;55.652;37.710;2022-08-11T13:42:13;27.50;40.60
30290;DHT22;17105;55.652;37.710;2022-08-11T13:42:53;27.50;40.50
30290;DHT22;17105;55.652;37.710;2022-08-11T13:43:29;27.50;40.50
30290;DHT22;17105;55.652;37.710;2022-08-11T13:44:03;27.50;40.50
30290;DHT22;17105;55.652;37.710;2022-08-11T13:44:38;27.50;40.30
30290;DHT22;17105;55.652;37.710;2022-08-11T13:45:14;27.50;40.40
30290;DHT22;17105;55.652;37.710;2022-08-11T13:45:52;27.50;40.60
30290;DHT22;17105;55.652;37.710;2022-08-11T13:46:48;27.50;40.40
30290;DHT22;17105;55.652;37.710;2022-08-11T13:47:24;27.50;40.40
30290;DHT22;17105;55.652;37.710;2022-08-11T13:48:05;27.40;40.30
30290;DHT22;17105;55.652;37.710;2022-08-11T13:48:40;27.40;40.30
30290;DHT22;17105;55.652;37.710;2022-08-11T13:49:16;27.40;40.40
30290;DHT22;17105;55.652;37.710;2022-08-11T13:49:52;27.40;40.40
30290;DHT22;17105;55.652;37.710;2022-08-11T13:50:27;27.40;40.40
30290;DHT22;17105;55.652;37.710;2022-08-11T13:51:16;27.40;40.40
30290;DHT22;17105;55.652;37.710;2022-08-11T13:52:10;27.40;40.50
30290;DHT22;17105;55.652;37.710;2022-08-11T13:52:46;27.40;40.40
30290;DHT22;17105;55.652;37.710;2022-08-11T13:53:26;27.40;40.30
30290;DHT22;17105;55.652;37.710;2022-08-11T13:54:04;27.40;40.30
30290;DHT22;17105;55.652;37.710;2022-08-11T13:54:40;27.40;40.30
30290;DHT22;17105;55.652;37.710;2022-08-11T13:55:16;27.30;40.20
30290;DHT22;17105;55.652;37.710;2022-08-11T13:56:14;27.40;40.40
30290;DHT22;17105;55.652;37.710;2022-08-11T13:56:51;27.40;40.40
30290;DHT22;17105;55.652;37.710;2022-08-11T13:57:29;27.40;40.20
30290;DHT22;17105;55.652;37.710;2022-08-11T13:58:26;27.40;40.00
30290;DHT22;17105;55.652;37.710;2022-08-11T13:59:14;27.40;39.90
30290;DHT22;17105;55.652;37.710;2022-08-11T14:00:06;27.40;40.00
30290;DHT22;17105;55.652;37.710;2022-08-11T14:01:06;27.40;40.10
30290;DHT22;17105;55.652;37.710;2022-08-11T14:02:04;27.40;40.10
30290;DHT22;17105;55.652;37.710;2022-08-11T14:03:00;27.40;40.10